Terminal Aerodrome Forecast
Issued by NWS Wichita, KS

Home | Current Version | Previous Version | Graphics & Text | Print | Product List | Glossary On
Versions: 1 2 3 4 5 6 7 8 9 10 11 12 13 14 15 16 17
000
FTUS43 KICT 200552 AAA
TAFICT
TAF AMD
KICT 200552Z 2006/2106 30013G20KT P6SM OVC006
      TEMPO 2006/2010 2SM -DZ BR
     FM201000 30013KT P6SM OVC012
     FM201400 31017KT P6SM BKN022
     FM202000 30017KT P6SM BKN035=

USA.gov is the U.S. government's official web portal to all federal, state and local government web resources and services.